createdAt,value
2022-10-07T00:02:00.454Z,2.45
2022-10-07T00:04:28.425Z,2.25
2022-10-07T00:06:56.337Z,2.35
2022-10-07T00:09:24.328Z,1.88
2022-10-07T00:11:52.288Z,2.13
2022-10-07T00:14:21.560Z,2.70
2022-10-07T00:16:49.657Z,1.85
2022-10-07T00:19:17.554Z,2.30
2022-10-07T00:21:45.494Z,2.08
2022-10-07T00:24:14.453Z,2.20
2022-10-07T00:26:42.430Z,2.08
2022-10-07T00:29:10.333Z,2.10
2022-10-07T00:31:39.738Z,2.00
2022-10-07T00:34:07.803Z,2.70
2022-10-07T00:36:37.898Z,2.03
2022-10-07T00:39:07.476Z,2.30
2022-10-07T00:41:37.596Z,2.47
2022-10-07T00:44:34.151Z,2.88
2022-10-07T00:47:06.071Z,1.90
2022-10-07T00:49:42.173Z,2.75
2022-10-07T00:52:10.275Z,2.80
2022-10-07T00:54:39.833Z,2.70
2022-10-07T00:57:08.200Z,1.92
2022-10-07T00:59:38.097Z,2.22
2022-10-07T01:02:07.981Z,2.63
2022-10-07T01:04:36.809Z,2.20
2022-10-07T01:07:04.880Z,2.15
2022-10-07T01:09:33.177Z,2.70
2022-10-07T01:12:07.986Z,2.28
2022-10-07T01:14:49.992Z,2.55
2022-10-07T01:17:26.373Z,2.03
2022-10-07T01:20:11.885Z,3.28
2022-10-07T01:22:48.423Z,3.25
2022-10-07T01:25:29.416Z,2.40
2022-10-07T01:28:04.741Z,3.00
2022-10-07T01:30:37.187Z,2.80
2022-10-07T01:33:11.269Z,2.58
2022-10-07T01:35:43.281Z,2.35
2022-10-07T01:38:15.102Z,2.08
2022-10-07T01:40:48.283Z,2.65
2022-10-07T01:43:21.684Z,2.72
2022-10-07T01:45:52.410Z,2.60
2022-10-07T01:48:20.351Z,2.67
2022-10-07T01:50:49.715Z,1.95
2022-10-07T01:53:29.798Z,2.45
2022-10-07T01:56:13.844Z,2.40
2022-10-07T01:59:02.680Z,2.53
2022-10-07T02:01:45.021Z,2.53
2022-10-07T02:04:24.940Z,2.30
2022-10-07T02:07:01.805Z,2.17
2022-10-07T02:09:35.611Z,2.67
2022-10-07T02:12:11.017Z,3.13
2022-10-07T02:14:46.600Z,3.20
2022-10-07T02:17:18.806Z,3.05
2022-10-07T02:19:53.389Z,3.25
2022-10-07T02:22:24.434Z,2.47
2022-10-07T02:24:55.558Z,3.20
2022-10-07T02:27:28.354Z,2.63
2022-10-07T02:30:03.053Z,3.00
2022-10-07T02:32:35.129Z,3.10
2022-10-07T02:35:13.582Z,2.85
2022-10-07T02:37:45.777Z,3.63
2022-10-07T02:40:14.693Z,2.67
2022-10-07T02:42:53.368Z,3.30
2022-10-07T02:45:30.284Z,2.38
2022-10-07T02:48:01.645Z,4.32
2022-10-07T02:50:42.454Z,3.30
2022-10-07T02:53:13.670Z,2.85
2022-10-07T02:55:43.648Z,2.60
2022-10-07T02:58:14.000Z,2.78
2022-10-07T03:00:52.884Z,3.40
2022-10-07T03:03:23.570Z,3.20
2022-10-07T03:06:05.144Z,2.95
2022-10-07T03:08:34.235Z,3.47
2022-10-07T03:11:03.294Z,3.03
2022-10-07T03:13:32.207Z,2.90
2022-10-07T03:16:05.335Z,3.15
2022-10-07T03:18:34.465Z,2.88
2022-10-07T03:21:18.982Z,3.05
2022-10-07T03:23:52.143Z,3.42
2022-10-07T03:26:21.679Z,3.07
2022-10-07T03:28:50.118Z,3.95
2022-10-07T03:31:20.903Z,3.17
2022-10-07T03:33:51.463Z,3.90
2022-10-07T03:36:20.920Z,3.30
2022-10-07T03:38:49.678Z,3.17
2022-10-07T03:41:17.915Z,2.72
2022-10-07T03:43:46.753Z,2.90
2022-10-07T03:48:49.977Z,3.70
2022-10-07T03:51:18.278Z,3.70
2022-10-07T03:53:46.748Z,3.05
2022-10-07T03:56:14.811Z,3.22
2022-10-07T03:58:44.522Z,3.63
2022-10-07T04:01:15.166Z,4.00
2022-10-07T04:03:51.661Z,3.70
2022-10-07T04:06:19.872Z,2.90
2022-10-07T04:08:52.917Z,2.80
2022-10-07T04:11:20.947Z,3.43
2022-10-07T04:13:49.177Z,3.17
2022-10-07T04:16:19.884Z,4.28
2022-10-07T04:18:48.709Z,3.15
2022-10-07T04:21:18.280Z,3.63
2022-10-07T04:23:46.261Z,2.75
2022-10-07T04:26:14.585Z,3.70
2022-10-07T04:28:47.926Z,3.22
2022-10-07T04:31:19.871Z,3.67
2022-10-07T04:33:53.624Z,3.00
2022-10-07T04:39:04.026Z,3.88
2022-10-07T04:41:36.287Z,3.72
2022-10-07T04:44:08.460Z,3.22
2022-10-07T04:46:42.103Z,3.03
2022-10-07T04:49:13.513Z,3.78
2022-10-07T04:51:43.133Z,3.65
2022-10-07T04:54:11.316Z,3.72
2022-10-07T04:56:49.911Z,3.72
2022-10-07T04:59:23.462Z,4.20
2022-10-07T05:01:52.461Z,3.58
2022-10-07T05:04:20.418Z,3.35
2022-10-07T05:06:50.139Z,5.03
2022-10-07T05:09:18.004Z,3.67
2022-10-07T05:11:48.291Z,3.88
2022-10-07T05:14:21.554Z,3.60
2022-10-07T05:16:51.062Z,3.83
2022-10-07T05:19:21.221Z,3.30
2022-10-07T05:21:51.159Z,4.05
2022-10-07T05:24:20.062Z,3.45
2022-10-07T05:26:48.960Z,3.88
2022-10-07T05:29:17.494Z,3.83
2022-10-07T05:31:49.752Z,3.67
2022-10-07T05:34:20.800Z,3.72
2022-10-07T05:36:48.864Z,4.07
2022-10-07T05:39:18.874Z,4.00
2022-10-07T05:41:53.160Z,3.60
2022-10-07T05:44:26.566Z,4.10
2022-10-07T05:46:57.724Z,4.55
2022-10-07T05:49:25.796Z,5.47
2022-10-07T05:51:53.664Z,4.22
2022-10-07T05:54:24.346Z,4.28
2022-10-07T05:56:53.961Z,5.45
2022-10-07T05:59:22.305Z,4.80
2022-10-07T06:01:50.778Z,3.80
2022-10-07T06:04:22.095Z,4.20
2022-10-07T06:06:52.741Z,4.32
2022-10-07T06:09:38.831Z,4.47
2022-10-07T06:12:32.181Z,3.63
2022-10-07T06:15:03.461Z,3.78
2022-10-07T06:17:31.540Z,3.90
2022-10-07T06:20:01.841Z,4.80
2022-10-07T06:22:30.426Z,4.63
2022-10-07T06:25:01.016Z,4.07
2022-10-07T06:27:30.460Z,4.47
2022-10-07T06:29:58.326Z,4.68
2022-10-07T06:32:26.241Z,5.18
2022-10-07T06:34:54.681Z,3.63
2022-10-07T06:37:22.876Z,5.43
2022-10-07T06:39:50.721Z,4.13
2022-10-07T06:42:19.395Z,4.32
2022-10-07T06:45:10.631Z,5.75
2022-10-07T06:47:39.490Z,5.18
2022-10-07T06:50:09.009Z,4.72
2022-10-07T06:52:40.036Z,4.93
2022-10-07T06:55:11.632Z,5.13
2022-10-07T06:57:45.595Z,4.90
2022-10-07T07:00:15.833Z,5.90
2022-10-07T07:02:44.816Z,4.05
2022-10-07T07:05:16.225Z,4.85
2022-10-07T07:07:46.292Z,5.38
2022-10-07T07:10:14.872Z,4.28
2022-10-07T07:12:46.535Z,4.53
2022-10-07T07:15:16.718Z,4.55
2022-10-07T07:17:44.933Z,4.15
2022-10-07T07:20:14.304Z,5.00
2022-10-07T07:22:43.337Z,5.22
2022-10-07T07:25:11.885Z,4.05
2022-10-07T07:27:40.284Z,5.20
2022-10-07T07:30:11.006Z,4.72
2022-10-07T07:32:40.768Z,4.72
2022-10-07T07:35:09.636Z,4.90
2022-10-07T07:37:38.100Z,4.35
2022-10-07T07:40:06.921Z,4.75
2022-10-07T07:42:35.313Z,4.18
2022-10-07T07:45:03.670Z,4.25
2022-10-07T07:47:34.074Z,4.45
2022-10-07T07:50:05.021Z,4.15
2022-10-07T07:52:35.382Z,4.20
2022-10-07T07:55:05.656Z,4.93
2022-10-07T07:57:33.616Z,4.45
2022-10-07T08:00:07.495Z,3.70
2022-10-07T08:02:42.037Z,4.25
2022-10-07T08:05:18.021Z,4.70
2022-10-07T08:07:49.953Z,3.80
2022-10-07T08:10:18.052Z,4.60
2022-10-07T08:12:46.085Z,4.45
2022-10-07T08:15:15.157Z,4.68
2022-10-07T08:17:44.203Z,6.28
2022-10-07T08:20:12.321Z,4.57
2022-10-07T08:22:45.863Z,4.65
2022-10-07T08:25:16.202Z,4.00
2022-10-07T08:27:45.829Z,4.00
2022-10-07T08:30:14.718Z,3.88
2022-10-07T08:32:44.614Z,3.45
2022-10-07T08:35:13.636Z,3.65
2022-10-07T08:37:47.453Z,3.55
2022-10-07T08:40:17.775Z,3.85
2022-10-07T08:42:47.745Z,4.28
2022-10-07T08:45:21.932Z,3.85
2022-10-07T08:47:52.819Z,4.40
2022-10-07T08:50:31.285Z,3.67
2022-10-07T08:53:04.645Z,4.43
2022-10-07T08:55:39.605Z,3.70
2022-10-07T08:58:35.132Z,5.05
2022-10-07T09:01:19.034Z,4.40
2022-10-07T09:03:56.291Z,3.13
2022-10-07T09:06:29.741Z,3.65
2022-10-07T09:09:05.569Z,3.35
2022-10-07T09:11:36.474Z,4.43
2022-10-07T09:14:16.992Z,4.47
2022-10-07T09:16:47.246Z,3.90
2022-10-07T09:19:24.055Z,3.75
2022-10-07T09:21:52.520Z,4.25
2022-10-07T09:24:24.544Z,3.70
2022-10-07T09:26:55.440Z,3.95
2022-10-07T09:29:25.325Z,4.43
2022-10-07T09:31:54.025Z,3.85
2022-10-07T09:34:25.008Z,4.03
2022-10-07T09:37:14.636Z,3.50
2022-10-07T09:39:45.246Z,4.13
2022-10-07T09:42:36.205Z,4.03
2022-10-07T09:45:18.512Z,3.90
2022-10-07T09:47:52.555Z,3.58
2022-10-07T09:50:38.050Z,3.53
2022-10-07T09:53:07.564Z,3.33
2022-10-07T09:55:42.833Z,3.80
2022-10-07T09:58:19.861Z,2.95
2022-10-07T10:00:50.186Z,3.60
2022-10-07T10:03:18.585Z,4.32
2022-10-07T10:05:57.467Z,4.68
2022-10-07T10:08:29.880Z,3.00
2022-10-07T10:11:05.276Z,4.00
2022-10-07T10:13:47.134Z,3.42
2022-10-07T10:16:34.020Z,3.42
2022-10-07T10:19:03.937Z,3.28
2022-10-07T10:21:35.821Z,3.65
2022-10-07T10:24:07.088Z,2.75
2022-10-07T10:27:03.175Z,3.05
2022-10-07T10:29:49.763Z,3.33
2022-10-07T10:32:29.658Z,3.03
2022-10-07T10:35:03.880Z,3.53
2022-10-07T10:37:48.017Z,3.28
2022-10-07T10:40:25.570Z,2.90
2022-10-07T10:43:12.504Z,3.85
2022-10-07T10:45:52.232Z,3.03
2022-10-07T10:48:33.626Z,3.08
2022-10-07T10:51:13.441Z,2.83
2022-10-07T10:53:54.761Z,3.00
2022-10-07T10:56:39.414Z,3.30
2022-10-07T10:59:22.940Z,2.60
2022-10-07T11:02:00.316Z,3.13
2022-10-07T11:04:43.594Z,2.50
2022-10-07T11:07:20.080Z,3.13
2022-10-07T11:09:52.400Z,3.60
2022-10-07T11:12:26.188Z,3.00
2022-10-07T11:15:02.111Z,2.97
2022-10-07T11:17:35.816Z,2.85
2022-10-07T11:20:15.618Z,3.28
2022-10-07T11:22:52.741Z,3.47
2022-10-07T11:25:29.929Z,2.63
2022-10-07T11:28:08.809Z,3.05
2022-10-07T11:30:47.983Z,2.40
2022-10-07T11:33:24.402Z,3.10
2022-10-07T11:35:58.998Z,2.80
2022-10-07T11:38:33.604Z,3.05
2022-10-07T11:41:09.850Z,2.92
2022-10-07T11:43:44.718Z,2.72
2022-10-07T11:46:22.110Z,2.45
2022-10-07T11:48:54.118Z,3.45
2022-10-07T11:51:25.955Z,2.75
2022-10-07T11:53:57.231Z,3.13
2022-10-07T11:56:28.051Z,2.50
2022-10-07T11:59:02.046Z,2.97
2022-10-07T12:01:48.762Z,3.08
2022-10-07T12:04:35.261Z,2.67
2022-10-07T12:07:37.417Z,2.30
2022-10-07T12:10:22.053Z,2.30
2022-10-07T12:12:53.013Z,2.30
2022-10-07T12:15:36.183Z,2.72
2022-10-07T12:18:30.471Z,2.25
2022-10-07T12:21:07.046Z,2.72
2022-10-07T12:23:45.531Z,2.90
2022-10-07T12:26:50.863Z,2.28
2022-10-07T12:29:32.409Z,2.47
2022-10-07T12:32:01.509Z,2.90
2022-10-07T12:34:43.443Z,2.60
2022-10-07T12:37:50.368Z,2.47
2022-10-07T12:40:28.050Z,2.75
2022-10-07T12:43:03.193Z,2.70
2022-10-07T12:45:38.056Z,2.65
2022-10-07T12:48:08.267Z,2.65
2022-10-07T12:50:38.522Z,2.90
2022-10-07T12:53:07.188Z,2.72
2022-10-07T12:55:38.108Z,2.78
2022-10-07T12:58:49.469Z,2.60
2022-10-07T13:01:29.141Z,2.45
2022-10-07T13:04:18.772Z,2.22
2022-10-07T13:07:36.070Z,2.25
2022-10-07T13:10:24.299Z,2.33
2022-10-07T13:12:56.630Z,2.05
2022-10-07T13:15:32.360Z,2.33
2022-10-07T13:18:10.875Z,2.55
2022-10-07T13:20:55.772Z,2.50
2022-10-07T13:23:28.267Z,2.60
2022-10-07T13:25:58.428Z,2.05
2022-10-07T13:28:32.019Z,2.00
2022-10-07T13:31:14.250Z,2.58
2022-10-07T13:33:43.191Z,1.83
2022-10-07T13:36:21.019Z,2.30
2022-10-07T13:38:53.686Z,2.55
2022-10-07T13:41:27.604Z,2.60
2022-10-07T13:44:00.478Z,2.45
2022-10-07T13:46:31.316Z,2.00
2022-10-07T13:49:00.663Z,2.97
2022-10-07T13:51:32.754Z,2.65
2022-10-07T13:54:05.044Z,2.97
2022-10-07T13:56:38.938Z,2.70
2022-10-07T13:59:07.709Z,3.20
2022-10-07T14:01:40.212Z,2.55
2022-10-07T14:04:19.875Z,3.30
2022-10-07T14:06:54.380Z,2.70
2022-10-07T14:09:34.307Z,3.58
2022-10-07T14:12:05.580Z,4.28
2022-10-07T14:14:36.995Z,4.05
2022-10-07T14:17:12.081Z,2.60
2022-10-07T14:19:40.915Z,3.45
2022-10-07T14:22:19.526Z,3.47
2022-10-07T14:25:01.503Z,3.28
2022-10-07T14:28:11.276Z,2.40
2022-10-07T14:30:58.028Z,2.90
2022-10-07T14:33:47.680Z,3.40
2022-10-07T14:36:18.222Z,3.88
2022-10-07T14:38:47.768Z,5.18
2022-10-07T14:41:19.158Z,3.80
2022-10-07T14:43:49.833Z,4.57
2022-10-07T14:46:19.491Z,3.58
2022-10-07T14:48:48.325Z,3.90
2022-10-07T14:51:19.260Z,2.85
2022-10-07T14:53:49.749Z,2.55
2022-10-07T14:56:25.145Z,3.08
2022-10-07T14:58:53.109Z,2.30
2022-10-07T15:01:21.011Z,2.72
2022-10-07T15:03:50.269Z,2.50
2022-10-07T15:06:19.021Z,3.38
2022-10-07T15:08:47.904Z,2.53
2022-10-07T15:11:16.293Z,2.42
2022-10-07T15:13:47.742Z,2.65
2022-10-07T15:16:17.421Z,2.42
2022-10-07T15:18:51.048Z,2.65
2022-10-07T15:21:24.656Z,2.83
2022-10-07T15:23:53.293Z,3.50
2022-10-07T15:26:24.362Z,2.72
2022-10-07T15:28:55.393Z,2.90
2022-10-07T15:31:26.055Z,2.53
2022-10-07T15:33:57.175Z,2.88
2022-10-07T15:36:25.845Z,2.88
2022-10-07T15:38:54.412Z,2.80
2022-10-07T15:41:34.293Z,3.25
2022-10-07T15:44:05.784Z,2.60
2022-10-07T15:46:34.013Z,3.38
2022-10-07T15:49:05.540Z,2.88
2022-10-07T15:51:35.619Z,3.17
2022-10-07T15:54:04.581Z,2.67
2022-10-07T15:56:32.604Z,2.53
2022-10-07T15:59:02.213Z,2.50
2022-10-07T16:01:33.036Z,2.50
2022-10-07T16:04:02.974Z,2.17
2022-10-07T16:06:33.330Z,2.83
2022-10-07T16:09:02.526Z,2.20
2022-10-07T16:11:32.982Z,2.03
2022-10-07T16:14:02.299Z,2.53
2022-10-07T16:16:32.959Z,2.88
2022-10-07T16:19:01.721Z,2.55
2022-10-07T16:21:32.075Z,2.95
2022-10-07T16:24:04.588Z,3.47
2022-10-07T16:26:34.711Z,2.75
2022-10-07T16:29:22.255Z,2.17
2022-10-07T16:31:57.944Z,2.50
2022-10-07T16:34:28.095Z,1.95
2022-10-07T16:36:57.365Z,2.28
2022-10-07T16:39:25.663Z,2.50
2022-10-07T16:41:59.541Z,2.72
2022-10-07T16:44:27.984Z,2.40
2022-10-07T16:46:58.127Z,2.80
2022-10-07T16:49:27.731Z,2.55
2022-10-07T16:51:56.430Z,2.05
2022-10-07T16:54:29.998Z,2.63
2022-10-07T16:59:27.336Z,2.55
2022-10-07T17:02:00.159Z,2.28
2022-10-07T17:04:28.464Z,2.67
2022-10-07T17:06:56.473Z,2.35
2022-10-07T17:09:25.509Z,1.90
2022-10-07T17:11:53.847Z,2.30
2022-10-07T17:14:23.682Z,2.35
2022-10-07T17:16:53.916Z,2.28
2022-10-07T17:19:25.364Z,2.30
2022-10-07T17:21:55.077Z,2.22
2022-10-07T17:24:24.377Z,2.20
2022-10-07T17:26:53.529Z,1.92
2022-10-07T17:29:24.308Z,2.70
2022-10-07T17:31:52.709Z,3.00
2022-10-07T17:34:23.304Z,2.20
2022-10-07T17:36:51.721Z,2.03
2022-10-07T17:39:20.164Z,2.72
2022-10-07T17:41:48.824Z,2.60
2022-10-07T17:44:17.189Z,3.45
2022-10-07T17:46:45.432Z,2.45
2022-10-07T17:49:14.352Z,3.20
2022-10-07T17:51:44.278Z,2.25
2022-10-07T17:54:14.153Z,2.67
2022-10-07T17:56:44.361Z,2.22
2022-10-07T17:59:12.331Z,2.17
2022-10-07T18:01:41.234Z,3.00
2022-10-07T18:04:12.233Z,2.85
2022-10-07T18:06:44.213Z,3.08
2022-10-07T18:09:18.171Z,3.00
2022-10-07T18:12:04.261Z,3.03
2022-10-07T18:14:53.811Z,2.22
2022-10-07T18:17:23.094Z,2.83
2022-10-07T18:19:51.054Z,2.90
2022-10-07T18:22:20.346Z,2.80
2022-10-07T18:24:48.265Z,3.10
2022-10-07T18:27:16.618Z,3.05
2022-10-07T18:29:44.613Z,2.97
2022-10-07T18:32:12.550Z,3.13
2022-10-07T18:34:40.378Z,3.03
2022-10-07T18:37:08.486Z,3.30
2022-10-07T18:39:38.471Z,2.78
2022-10-07T18:42:06.585Z,2.80
2022-10-07T18:44:34.429Z,2.83
2022-10-07T18:47:02.448Z,3.70
2022-10-07T18:49:30.273Z,3.33
2022-10-07T18:51:58.264Z,3.45
2022-10-07T18:54:26.289Z,3.50
2022-10-07T18:56:55.709Z,3.75
2022-10-07T18:59:23.555Z,3.17
2022-10-07T19:01:51.628Z,3.17
2022-10-07T19:04:20.147Z,3.50
2022-10-07T19:06:48.868Z,3.20
2022-10-07T19:09:19.185Z,4.25
2022-10-07T19:11:47.597Z,2.95
2022-10-07T19:14:16.668Z,3.38
2022-10-07T19:16:46.473Z,3.65
2022-10-07T19:19:16.886Z,3.10
2022-10-07T19:21:46.394Z,2.83
2022-10-07T19:24:15.622Z,3.28
2022-10-07T19:26:45.696Z,2.60
2022-10-07T19:29:16.621Z,3.53
2022-10-07T19:31:46.131Z,2.83
2022-10-07T19:34:16.243Z,3.35
2022-10-07T19:36:47.315Z,3.40
2022-10-07T19:39:16.481Z,3.03
2022-10-07T19:41:45.186Z,3.00
2022-10-07T19:44:14.281Z,3.10
2022-10-07T19:46:44.144Z,3.17
2022-10-07T19:49:12.524Z,2.83
2022-10-07T19:51:42.168Z,2.92
2022-10-07T19:54:10.658Z,3.40
2022-10-07T19:56:40.932Z,3.65
2022-10-07T19:59:10.842Z,3.17
2022-10-07T20:01:41.520Z,3.08
2022-10-07T20:04:14.121Z,2.67
2022-10-07T20:06:42.791Z,3.38
2022-10-07T20:09:13.145Z,3.45
2022-10-07T20:11:41.007Z,2.72
2022-10-07T20:14:09.977Z,2.97
2022-10-07T20:16:38.256Z,2.70
2022-10-07T20:19:07.737Z,2.70
2022-10-07T20:21:39.359Z,2.58
2022-10-07T20:24:08.824Z,3.05
2022-10-07T20:26:38.801Z,2.63
2022-10-07T20:29:09.980Z,3.38
2022-10-07T20:31:39.553Z,2.60
2022-10-07T20:34:09.693Z,3.33
2022-10-07T20:36:41.329Z,2.63
2022-10-07T20:39:31.769Z,2.92
2022-10-07T20:42:17.050Z,2.75
2022-10-07T20:44:44.945Z,2.50
2022-10-07T20:47:12.833Z,3.20
2022-10-07T20:53:36.079Z,2.70
2022-10-07T20:56:04.513Z,2.95
2022-10-07T20:58:32.533Z,2.72
2022-10-07T21:01:08.464Z,2.65
2022-10-07T21:03:37.293Z,2.65
2022-10-07T21:06:05.741Z,3.28
2022-10-07T21:08:35.125Z,3.70
2022-10-07T21:11:03.769Z,2.88
2022-10-07T21:13:33.324Z,2.70
2022-10-07T21:16:04.781Z,2.53
2022-10-07T21:18:33.590Z,2.92
2022-10-07T21:21:01.553Z,2.28
2022-10-07T21:23:29.813Z,2.47
2022-10-07T21:26:02.499Z,2.20
2022-10-07T21:28:33.152Z,2.40
2022-10-07T21:31:01.970Z,2.95
2022-10-07T21:33:30.553Z,3.10
2022-10-07T21:36:00.562Z,2.90
2022-10-07T21:38:28.801Z,3.10
2022-10-07T21:41:00.229Z,2.47
2022-10-07T21:43:29.865Z,2.67
2022-10-07T21:45:58.666Z,2.65
2022-10-07T21:48:28.303Z,2.63
2022-10-07T21:50:56.293Z,2.97
2022-10-07T21:53:24.604Z,2.88
2022-10-07T21:55:52.975Z,2.75
2022-10-07T21:58:21.537Z,3.17
2022-10-07T22:00:50.791Z,2.15
2022-10-07T22:03:18.859Z,2.33
2022-10-07T22:05:46.705Z,2.97
2022-10-07T22:08:34.374Z,2.85
2022-10-07T22:11:03.221Z,3.05
2022-10-07T22:13:32.989Z,4.82
2022-10-07T22:16:04.550Z,3.30
2022-10-07T22:18:36.024Z,2.92
2022-10-07T22:21:10.863Z,2.97
2022-10-07T22:23:38.733Z,2.75
2022-10-07T22:26:08.335Z,3.25
2022-10-07T22:28:38.496Z,2.90
2022-10-07T22:31:10.008Z,2.80
2022-10-07T22:33:39.503Z,2.67
2022-10-07T22:36:07.738Z,2.83
2022-10-07T22:38:36.128Z,2.50
2022-10-07T22:41:04.140Z,2.53
2022-10-07T22:43:32.256Z,3.42
2022-10-07T22:46:00.648Z,2.47
2022-10-07T22:48:31.322Z,3.00
2022-10-07T22:51:08.113Z,3.35
2022-10-07T22:53:37.220Z,3.10
2022-10-07T22:56:06.327Z,2.83
2022-10-07T22:58:34.703Z,2.63
2022-10-07T23:01:04.414Z,2.25
2022-10-07T23:03:39.549Z,3.17
2022-10-07T23:06:33.493Z,2.22
2022-10-07T23:09:01.992Z,3.22
2022-10-07T23:11:31.447Z,2.55
2022-10-07T23:14:01.759Z,2.08
2022-10-07T23:16:38.152Z,3.15
2022-10-07T23:19:07.545Z,2.78
2022-10-07T23:21:37.067Z,2.50
2022-10-07T23:24:08.212Z,2.85
2022-10-07T23:26:38.300Z,3.78
2022-10-07T23:29:07.794Z,5.20
2022-10-07T23:31:39.254Z,3.35
2022-10-07T23:34:08.497Z,3.17
2022-10-07T23:36:40.885Z,3.63
2022-10-07T23:39:08.797Z,4.22
2022-10-07T23:41:36.769Z,2.90
2022-10-07T23:44:04.770Z,2.95
2022-10-07T23:46:41.804Z,3.38
2022-10-07T23:49:11.803Z,3.65
2022-10-07T23:51:40.329Z,3.75
2022-10-07T23:54:08.428Z,3.10
2022-10-07T23:56:36.322Z,3.60
2022-10-07T23:59:04.271Z,3.38
